sensor_id;sensor_type;location;lat;lon;timestamp;temperature;humidity
34768;DHT22;21755;43.608;1.236;2023-10-19T00:00:05;16.80;99.90
34768;DHT22;21755;43.608;1.236;2023-10-19T00:02:50;16.90;99.90
34768;DHT22;21755;43.608;1.236;2023-10-19T00:05:20;16.80;99.90
34768;DHT22;21755;43.608;1.236;2023-10-19T00:07:46;16.80;99.90
34768;DHT22;21755;43.608;1.236;2023-10-19T00:10:12;16.80;99.90
34768;DHT22;21755;43.608;1.236;2023-10-19T00:12:41;16.80;99.90
34768;DHT22;21755;43.608;1.236;2023-10-19T00:15:10;16.80;99.90
34768;DHT22;21755;43.608;1.236;2023-10-19T00:17:37;16.70;99.90
34768;DHT22;21755;43.608;1.236;2023-10-19T00:20:06;16.80;99.90
34768;DHT22;21755;43.608;1.236;2023-10-19T00:22:52;16.70;99.90
34768;DHT22;21755;43.608;1.236;2023-10-19T00:25:19;16.70;99.90
34768;DHT22;21755;43.608;1.236;2023-10-19T00:27:49;16.80;99.90
34768;DHT22;21755;43.608;1.236;2023-10-19T00:30:14;16.80;99.90
34768;DHT22;21755;43.608;1.236;2023-10-19T00:32:44;16.80;99.90
34768;DHT22;21755;43.608;1.236;2023-10-19T00:35:11;16.80;99.90
34768;DHT22;21755;43.608;1.236;2023-10-19T00:37:54;16.90;99.90
34768;DHT22;21755;43.608;1.236;2023-10-19T00:40:23;16.90;99.90
34768;DHT22;21755;43.608;1.236;2023-10-19T00:43:03;16.90;99.90
34768;DHT22;21755;43.608;1.236;2023-10-19T00:45:35;16.90;99.90
34768;DHT22;21755;43.608;1.236;2023-10-19T00:48:08;16.90;99.90
34768;DHT22;21755;43.608;1.236;2023-10-19T00:50:34;16.90;99.90
34768;DHT22;21755;43.608;1.236;2023-10-19T00:53:02;16.90;99.90
34768;DHT22;21755;43.608;1.236;2023-10-19T00:55:33;16.90;99.90
34768;DHT22;21755;43.608;1.236;2023-10-19T00:58:00;16.80;99.90
34768;DHT22;21755;43.608;1.236;2023-10-19T01:00:35;16.80;99.90
34768;DHT22;21755;43.608;1.236;2023-10-19T01:03:11;16.80;99.90
34768;DHT22;21755;43.608;1.236;2023-10-19T01:05:43;16.80;99.90
34768;DHT22;21755;43.608;1.236;2023-10-19T01:08:13;16.90;99.90
34768;DHT22;21755;43.608;1.236;2023-10-19T01:10:50;16.90;99.90
34768;DHT22;21755;43.608;1.236;2023-10-19T01:13:18;16.80;99.90
34768;DHT22;21755;43.608;1.236;2023-10-19T01:15:53;16.80;99.90
34768;DHT22;21755;43.608;1.236;2023-10-19T01:18:19;16.80;99.90
34768;DHT22;21755;43.608;1.236;2023-10-19T01:20:47;16.80;99.90
34768;DHT22;21755;43.608;1.236;2023-10-19T01:23:16;16.90;99.90
34768;DHT22;21755;43.608;1.236;2023-10-19T01:25:59;16.80;99.90
34768;DHT22;21755;43.608;1.236;2023-10-19T01:28:26;16.90;99.90
34768;DHT22;21755;43.608;1.236;2023-10-19T01:31:21;16.90;99.90
34768;DHT22;21755;43.608;1.236;2023-10-19T01:33:54;16.90;99.90
34768;DHT22;21755;43.608;1.236;2023-10-19T01:36:27;16.90;99.90
34768;DHT22;21755;43.608;1.236;2023-10-19T01:38:57;16.80;99.90
34768;DHT22;21755;43.608;1.236;2023-10-19T01:41:27;16.80;99.90
34768;DHT22;21755;43.608;1.236;2023-10-19T01:43:56;16.80;99.90
34768;DHT22;21755;43.608;1.236;2023-10-19T01:46:30;16.80;99.90
34768;DHT22;21755;43.608;1.236;2023-10-19T01:49:00;16.90;99.90
34768;DHT22;21755;43.608;1.236;2023-10-19T01:51:31;16.90;99.90
34768;DHT22;21755;43.608;1.236;2023-10-19T01:54:07;16.90;99.90
34768;DHT22;21755;43.608;1.236;2023-10-19T01:56:33;16.90;99.90
34768;DHT22;21755;43.608;1.236;2023-10-19T01:59:02;17.00;99.90
34768;DHT22;21755;43.608;1.236;2023-10-19T02:01:30;17.00;99.90
34768;DHT22;21755;43.608;1.236;2023-10-19T02:04:04;17.00;99.90
34768;DHT22;21755;43.608;1.236;2023-10-19T02:06:32;17.00;99.90
34768;DHT22;21755;43.608;1.236;2023-10-19T02:09:11;16.90;99.90
34768;DHT22;21755;43.608;1.236;2023-10-19T02:11:43;17.00;99.90
34768;DHT22;21755;43.608;1.236;2023-10-19T02:14:12;17.00;99.90
34768;DHT22;21755;43.608;1.236;2023-10-19T02:16:54;17.00;99.90
34768;DHT22;21755;43.608;1.236;2023-10-19T02:19:25;17.00;99.90
34768;DHT22;21755;43.608;1.236;2023-10-19T02:21:56;17.00;99.90
34768;DHT22;21755;43.608;1.236;2023-10-19T02:24:22;17.10;99.90
34768;DHT22;21755;43.608;1.236;2023-10-19T02:26:51;17.10;99.90
34768;DHT22;21755;43.608;1.236;2023-10-19T02:29:17;17.10;99.90
34768;DHT22;21755;43.608;1.236;2023-10-19T02:31:44;17.20;99.90
34768;DHT22;21755;43.608;1.236;2023-10-19T02:34:12;17.20;99.90
34768;DHT22;21755;43.608;1.236;2023-10-19T02:36:42;17.20;99.90
34768;DHT22;21755;43.608;1.236;2023-10-19T02:39:10;17.20;99.90
34768;DHT22;21755;43.608;1.236;2023-10-19T02:41:37;17.30;99.90
34768;DHT22;21755;43.608;1.236;2023-10-19T02:44:07;17.30;99.90
34768;DHT22;21755;43.608;1.236;2023-10-19T02:49:12;17.40;99.90
34768;DHT22;21755;43.608;1.236;2023-10-19T02:51:45;17.50;99.90
34768;DHT22;21755;43.608;1.236;2023-10-19T02:54:15;17.50;99.90
34768;DHT22;21755;43.608;1.236;2023-10-19T02:56:47;17.60;99.90
34768;DHT22;21755;43.608;1.236;2023-10-19T02:59:19;17.60;99.90
34768;DHT22;21755;43.608;1.236;2023-10-19T03:01:56;17.70;99.90
34768;DHT22;21755;43.608;1.236;2023-10-19T03:04:34;17.70;99.90
34768;DHT22;21755;43.608;1.236;2023-10-19T03:07:03;17.70;99.90
34768;DHT22;21755;43.608;1.236;2023-10-19T03:09:29;17.70;99.90
34768;DHT22;21755;43.608;1.236;2023-10-19T03:11:57;17.80;99.90
34768;DHT22;21755;43.608;1.236;2023-10-19T03:14:29;17.80;99.90
34768;DHT22;21755;43.608;1.236;2023-10-19T03:16:57;17.80;99.90
34768;DHT22;21755;43.608;1.236;2023-10-19T03:19:23;17.80;99.90
34768;DHT22;21755;43.608;1.236;2023-10-19T03:21:53;17.80;99.90
34768;DHT22;21755;43.608;1.236;2023-10-19T03:24:21;17.80;99.90
34768;DHT22;21755;43.608;1.236;2023-10-19T03:27:03;17.80;99.90
34768;DHT22;21755;43.608;1.236;2023-10-19T03:29:41;17.80;99.90
34768;DHT22;21755;43.608;1.236;2023-10-19T03:32:11;17.90;99.90
34768;DHT22;21755;43.608;1.236;2023-10-19T03:34:38;17.90;99.90
34768;DHT22;21755;43.608;1.236;2023-10-19T03:37:04;17.90;99.90
34768;DHT22;21755;43.608;1.236;2023-10-19T03:39:38;17.90;99.90
34768;DHT22;21755;43.608;1.236;2023-10-19T03:42:05;17.90;99.90
34768;DHT22;21755;43.608;1.236;2023-10-19T03:44:34;17.90;99.90
34768;DHT22;21755;43.608;1.236;2023-10-19T03:47:15;17.90;99.90
34768;DHT22;21755;43.608;1.236;2023-10-19T03:49:45;17.90;99.90
34768;DHT22;21755;43.608;1.236;2023-10-19T03:52:13;17.90;99.90
34768;DHT22;21755;43.608;1.236;2023-10-19T03:54:40;18.00;99.90
34768;DHT22;21755;43.608;1.236;2023-10-19T03:57:11;18.00;99.90
34768;DHT22;21755;43.608;1.236;2023-10-19T03:59:48;18.00;99.90
34768;DHT22;21755;43.608;1.236;2023-10-19T04:02:37;18.00;99.90
34768;DHT22;21755;43.608;1.236;2023-10-19T04:05:04;17.90;99.90
34768;DHT22;21755;43.608;1.236;2023-10-19T04:07:30;17.90;99.90
34768;DHT22;21755;43.608;1.236;2023-10-19T04:09:57;17.90;99.90
34768;DHT22;21755;43.608;1.236;2023-10-19T04:12:32;17.90;99.90
34768;DHT22;21755;43.608;1.236;2023-10-19T04:15:02;17.80;99.90
34768;DHT22;21755;43.608;1.236;2023-10-19T04:17:40;17.80;99.90
34768;DHT22;21755;43.608;1.236;2023-10-19T04:20:09;17.90;99.90
34768;DHT22;21755;43.608;1.236;2023-10-19T04:22:55;17.90;99.90
34768;DHT22;21755;43.608;1.236;2023-10-19T04:25:31;17.90;99.90
34768;DHT22;21755;43.608;1.236;2023-10-19T04:27:57;17.90;99.90
34768;DHT22;21755;43.608;1.236;2023-10-19T04:30:23;17.90;99.90
34768;DHT22;21755;43.608;1.236;2023-10-19T04:32:50;17.90;99.90
34768;DHT22;21755;43.608;1.236;2023-10-19T04:35:17;17.90;99.90
34768;DHT22;21755;43.608;1.236;2023-10-19T04:37:52;17.90;99.90
34768;DHT22;21755;43.608;1.236;2023-10-19T04:40:19;17.90;99.90
34768;DHT22;21755;43.608;1.236;2023-10-19T04:42:46;17.90;99.90
34768;DHT22;21755;43.608;1.236;2023-10-19T04:45:13;17.90;99.90
34768;DHT22;21755;43.608;1.236;2023-10-19T04:47:39;18.00;99.90
34768;DHT22;21755;43.608;1.236;2023-10-19T04:50:06;17.90;99.90
34768;DHT22;21755;43.608;1.236;2023-10-19T04:52:33;18.00;99.90
34768;DHT22;21755;43.608;1.236;2023-10-19T04:55:00;18.00;99.90
34768;DHT22;21755;43.608;1.236;2023-10-19T04:57:26;17.90;99.90
34768;DHT22;21755;43.608;1.236;2023-10-19T04:59:52;18.00;99.90
34768;DHT22;21755;43.608;1.236;2023-10-19T05:02:18;17.90;99.90
34768;DHT22;21755;43.608;1.236;2023-10-19T05:04:44;17.90;99.90
34768;DHT22;21755;43.608;1.236;2023-10-19T05:07:14;18.00;99.90
34768;DHT22;21755;43.608;1.236;2023-10-19T05:09:44;18.00;99.90
34768;DHT22;21755;43.608;1.236;2023-10-19T05:12:10;18.00;99.90
34768;DHT22;21755;43.608;1.236;2023-10-19T05:14:37;18.00;99.90
34768;DHT22;21755;43.608;1.236;2023-10-19T05:17:03;18.00;99.90
34768;DHT22;21755;43.608;1.236;2023-10-19T05:19:33;18.00;99.90
34768;DHT22;21755;43.608;1.236;2023-10-19T05:22:01;18.00;99.90
34768;DHT22;21755;43.608;1.236;2023-10-19T05:24:28;18.00;99.90
34768;DHT22;21755;43.608;1.236;2023-10-19T05:26:54;18.00;99.90
34768;DHT22;21755;43.608;1.236;2023-10-19T05:29:20;18.00;99.90
34768;DHT22;21755;43.608;1.236;2023-10-19T05:31:46;18.00;99.90
34768;DHT22;21755;43.608;1.236;2023-10-19T05:34:12;18.00;99.90
34768;DHT22;21755;43.608;1.236;2023-10-19T05:36:38;17.90;99.90
34768;DHT22;21755;43.608;1.236;2023-10-19T05:39:10;17.90;99.90
34768;DHT22;21755;43.608;1.236;2023-10-19T05:41:36;17.90;99.90
34768;DHT22;21755;43.608;1.236;2023-10-19T05:44:04;17.80;99.90
34768;DHT22;21755;43.608;1.236;2023-10-19T05:46:30;17.80;99.90
34768;DHT22;21755;43.608;1.236;2023-10-19T05:48:57;17.80;99.90
34768;DHT22;21755;43.608;1.236;2023-10-19T05:51:23;17.70;99.90
34768;DHT22;21755;43.608;1.236;2023-10-19T05:53:50;17.70;99.90
34768;DHT22;21755;43.608;1.236;2023-10-19T05:56:24;17.60;99.90
34768;DHT22;21755;43.608;1.236;2023-10-19T05:58:50;17.60;99.90
34768;DHT22;21755;43.608;1.236;2023-10-19T06:01:16;17.60;99.90
34768;DHT22;21755;43.608;1.236;2023-10-19T06:03:43;17.50;99.90
34768;DHT22;21755;43.608;1.236;2023-10-19T06:06:10;17.50;99.90
34768;DHT22;21755;43.608;1.236;2023-10-19T06:08:36;17.50;99.90
34768;DHT22;21755;43.608;1.236;2023-10-19T06:11:02;17.40;99.90
34768;DHT22;21755;43.608;1.236;2023-10-19T06:13:28;17.40;99.90
34768;DHT22;21755;43.608;1.236;2023-10-19T06:15:55;17.40;99.90
34768;DHT22;21755;43.608;1.236;2023-10-19T06:18:21;17.30;99.90
34768;DHT22;21755;43.608;1.236;2023-10-19T06:20:47;17.30;99.90
34768;DHT22;21755;43.608;1.236;2023-10-19T06:23:16;17.30;99.90
34768;DHT22;21755;43.608;1.236;2023-10-19T06:25:43;17.20;99.90
34768;DHT22;21755;43.608;1.236;2023-10-19T06:28:10;17.20;99.90
34768;DHT22;21755;43.608;1.236;2023-10-19T06:30:39;17.20;99.90
34768;DHT22;21755;43.608;1.236;2023-10-19T06:33:08;17.20;99.90
34768;DHT22;21755;43.608;1.236;2023-10-19T06:35:34;17.30;99.90
34768;DHT22;21755;43.608;1.236;2023-10-19T06:38:03;17.40;99.90
34768;DHT22;21755;43.608;1.236;2023-10-19T06:40:29;17.40;99.90
34768;DHT22;21755;43.608;1.236;2023-10-19T06:42:57;17.50;99.90
34768;DHT22;21755;43.608;1.236;2023-10-19T06:45:24;17.60;99.90
34768;DHT22;21755;43.608;1.236;2023-10-19T06:47:51;17.70;99.90
34768;DHT22;21755;43.608;1.236;2023-10-19T06:50:22;17.70;99.90
34768;DHT22;21755;43.608;1.236;2023-10-19T06:52:48;17.70;99.90
34768;DHT22;21755;43.608;1.236;2023-10-19T06:55:16;17.80;99.90
34768;DHT22;21755;43.608;1.236;2023-10-19T06:57:46;17.80;99.90
34768;DHT22;21755;43.608;1.236;2023-10-19T07:00:14;17.80;99.90
34768;DHT22;21755;43.608;1.236;2023-10-19T07:02:48;17.80;99.90
34768;DHT22;21755;43.608;1.236;2023-10-19T07:05:16;17.90;99.90
34768;DHT22;21755;43.608;1.236;2023-10-19T07:07:51;17.90;99.90
34768;DHT22;21755;43.608;1.236;2023-10-19T07:10:19;18.00;99.90
34768;DHT22;21755;43.608;1.236;2023-10-19T07:12:47;18.00;99.90
34768;DHT22;21755;43.608;1.236;2023-10-19T07:15:14;18.00;99.90
34768;DHT22;21755;43.608;1.236;2023-10-19T07:17:43;18.00;99.90
34768;DHT22;21755;43.608;1.236;2023-10-19T07:20:10;18.00;99.90
34768;DHT22;21755;43.608;1.236;2023-10-19T07:23:02;18.10;99.90
34768;DHT22;21755;43.608;1.236;2023-10-19T07:25:52;18.10;99.90
34768;DHT22;21755;43.608;1.236;2023-10-19T07:28:20;18.10;99.90
34768;DHT22;21755;43.608;1.236;2023-10-19T07:30:47;18.20;99.90
34768;DHT22;21755;43.608;1.236;2023-10-19T07:33:14;18.20;99.90
34768;DHT22;21755;43.608;1.236;2023-10-19T07:35:44;18.20;99.90
34768;DHT22;21755;43.608;1.236;2023-10-19T07:38:13;18.20;99.90
34768;DHT22;21755;43.608;1.236;2023-10-19T07:40:39;18.20;99.90
34768;DHT22;21755;43.608;1.236;2023-10-19T07:43:05;18.30;99.90
34768;DHT22;21755;43.608;1.236;2023-10-19T07:45:32;18.20;99.90
34768;DHT22;21755;43.608;1.236;2023-10-19T07:48:00;18.20;99.90
34768;DHT22;21755;43.608;1.236;2023-10-19T07:50:33;18.20;99.90
34768;DHT22;21755;43.608;1.236;2023-10-19T07:52:59;18.20;99.90
34768;DHT22;21755;43.608;1.236;2023-10-19T07:55:25;18.30;99.90
34768;DHT22;21755;43.608;1.236;2023-10-19T07:57:51;18.30;99.90
34768;DHT22;21755;43.608;1.236;2023-10-19T08:00:18;18.50;99.90
34768;DHT22;21755;43.608;1.236;2023-10-19T08:02:44;18.60;99.90
34768;DHT22;21755;43.608;1.236;2023-10-19T08:05:14;18.80;99.90
34768;DHT22;21755;43.608;1.236;2023-10-19T08:07:41;18.90;99.90
34768;DHT22;21755;43.608;1.236;2023-10-19T08:10:11;19.10;99.90
34768;DHT22;21755;43.608;1.236;2023-10-19T08:12:38;19.10;99.90
34768;DHT22;21755;43.608;1.236;2023-10-19T08:15:10;19.10;99.90
34768;DHT22;21755;43.608;1.236;2023-10-19T08:17:41;19.10;99.90
34768;DHT22;21755;43.608;1.236;2023-10-19T08:20:09;19.10;99.90
34768;DHT22;21755;43.608;1.236;2023-10-19T08:22:42;19.10;99.90
34768;DHT22;21755;43.608;1.236;2023-10-19T08:25:09;19.10;99.90
34768;DHT22;21755;43.608;1.236;2023-10-19T08:27:44;19.10;99.90
34768;DHT22;21755;43.608;1.236;2023-10-19T08:30:14;19.00;99.90
34768;DHT22;21755;43.608;1.236;2023-10-19T08:32:40;19.00;99.90
34768;DHT22;21755;43.608;1.236;2023-10-19T08:35:08;19.00;99.90
34768;DHT22;21755;43.608;1.236;2023-10-19T08:37:38;19.00;99.90
34768;DHT22;21755;43.608;1.236;2023-10-19T08:40:10;19.00;99.90
34768;DHT22;21755;43.608;1.236;2023-10-19T08:42:47;18.90;99.90
34768;DHT22;21755;43.608;1.236;2023-10-19T08:45:14;18.90;99.90
34768;DHT22;21755;43.608;1.236;2023-10-19T08:48:00;18.90;99.90
34768;DHT22;21755;43.608;1.236;2023-10-19T08:50:29;18.90;99.90
34768;DHT22;21755;43.608;1.236;2023-10-19T08:52:58;18.90;99.90
34768;DHT22;21755;43.608;1.236;2023-10-19T08:55:24;18.80;99.90
34768;DHT22;21755;43.608;1.236;2023-10-19T08:57:51;18.80;99.90
34768;DHT22;21755;43.608;1.236;2023-10-19T09:00:18;18.80;99.90
34768;DHT22;21755;43.608;1.236;2023-10-19T09:02:48;18.80;99.90
34768;DHT22;21755;43.608;1.236;2023-10-19T09:05:14;18.90;99.90
34768;DHT22;21755;43.608;1.236;2023-10-19T09:07:54;18.90;99.90
34768;DHT22;21755;43.608;1.236;2023-10-19T09:10:24;18.90;99.90
34768;DHT22;21755;43.608;1.236;2023-10-19T09:13:02;18.90;99.90
34768;DHT22;21755;43.608;1.236;2023-10-19T09:15:29;19.00;99.90
34768;DHT22;21755;43.608;1.236;2023-10-19T09:18:27;19.00;99.90
34768;DHT22;21755;43.608;1.236;2023-10-19T09:20:54;19.00;99.90
34768;DHT22;21755;43.608;1.236;2023-10-19T09:23:27;19.00;99.90
34768;DHT22;21755;43.608;1.236;2023-10-19T09:25:58;19.00;99.90
34768;DHT22;21755;43.608;1.236;2023-10-19T09:28:25;18.90;99.90
34768;DHT22;21755;43.608;1.236;2023-10-19T09:30:52;18.90;99.90
34768;DHT22;21755;43.608;1.236;2023-10-19T09:33:19;18.90;99.90
34768;DHT22;21755;43.608;1.236;2023-10-19T09:35:48;18.90;99.90
34768;DHT22;21755;43.608;1.236;2023-10-19T09:38:16;18.90;99.90
34768;DHT22;21755;43.608;1.236;2023-10-19T09:40:50;18.80;99.90
34768;DHT22;21755;43.608;1.236;2023-10-19T09:45:51;18.80;99.90
34768;DHT22;21755;43.608;1.236;2023-10-19T09:48:20;18.90;99.90
34768;DHT22;21755;43.608;1.236;2023-10-19T09:50:54;19.00;99.90
34768;DHT22;21755;43.608;1.236;2023-10-19T09:53:28;19.20;99.90
34768;DHT22;21755;43.608;1.236;2023-10-19T09:55:58;19.30;99.90
34768;DHT22;21755;43.608;1.236;2023-10-19T10:01:10;19.50;99.90
34768;DHT22;21755;43.608;1.236;2023-10-19T10:03:52;19.60;99.90
34768;DHT22;21755;43.608;1.236;2023-10-19T10:09:18;19.80;99.90
34768;DHT22;21755;43.608;1.236;2023-10-19T10:11:49;19.90;99.90
34768;DHT22;21755;43.608;1.236;2023-10-19T10:14:22;20.00;99.90
34768;DHT22;21755;43.608;1.236;2023-10-19T10:17:01;20.10;99.90
34768;DHT22;21755;43.608;1.236;2023-10-19T10:19:27;20.10;99.90
34768;DHT22;21755;43.608;1.236;2023-10-19T10:22:10;20.20;99.90
34768;DHT22;21755;43.608;1.236;2023-10-19T10:24:47;20.30;99.90
34768;DHT22;21755;43.608;1.236;2023-10-19T10:27:18;20.40;99.90
34768;DHT22;21755;43.608;1.236;2023-10-19T10:29:58;20.50;99.90
34768;DHT22;21755;43.608;1.236;2023-10-19T10:32:48;20.60;99.90
34768;DHT22;21755;43.608;1.236;2023-10-19T10:38:10;20.80;99.90
34768;DHT22;21755;43.608;1.236;2023-10-19T10:40:46;20.90;99.90
34768;DHT22;21755;43.608;1.236;2023-10-19T10:43:17;21.00;99.90
34768;DHT22;21755;43.608;1.236;2023-10-19T10:45:43;21.10;99.90
34768;DHT22;21755;43.608;1.236;2023-10-19T10:48:17;21.20;99.90
34768;DHT22;21755;43.608;1.236;2023-10-19T10:50:43;21.30;99.90
34768;DHT22;21755;43.608;1.236;2023-10-19T10:53:12;21.40;99.90
34768;DHT22;21755;43.608;1.236;2023-10-19T10:55:38;21.50;99.90
34768;DHT22;21755;43.608;1.236;2023-10-19T10:58:05;21.50;99.90
34768;DHT22;21755;43.608;1.236;2023-10-19T11:00:31;21.50;99.90
34768;DHT22;21755;43.608;1.236;2023-10-19T11:03:06;21.50;99.90
34768;DHT22;21755;43.608;1.236;2023-10-19T11:05:37;21.50;99.90
34768;DHT22;21755;43.608;1.236;2023-10-19T11:08:26;21.50;99.90
34768;DHT22;21755;43.608;1.236;2023-10-19T11:10:52;21.80;99.90
34768;DHT22;21755;43.608;1.236;2023-10-19T11:13:23;21.90;99.90
34768;DHT22;21755;43.608;1.236;2023-10-19T11:15:55;22.00;99.90
34768;DHT22;21755;43.608;1.236;2023-10-19T11:18:35;22.10;99.90
34768;DHT22;21755;43.608;1.236;2023-10-19T11:21:06;22.10;99.90
34768;DHT22;21755;43.608;1.236;2023-10-19T11:23:45;22.30;99.90
34768;DHT22;21755;43.608;1.236;2023-10-19T11:26:19;22.50;99.90
34768;DHT22;21755;43.608;1.236;2023-10-19T11:28:46;22.60;99.90
34768;DHT22;21755;43.608;1.236;2023-10-19T11:31:21;22.70;99.90
34768;DHT22;21755;43.608;1.236;2023-10-19T11:33:50;22.70;99.90
34768;DHT22;21755;43.608;1.236;2023-10-19T11:36:17;22.70;99.90
34768;DHT22;21755;43.608;1.236;2023-10-19T11:38:45;22.60;99.90
34768;DHT22;21755;43.608;1.236;2023-10-19T11:41:12;22.60;99.90
34768;DHT22;21755;43.608;1.236;2023-10-19T11:43:44;22.70;99.90
34768;DHT22;21755;43.608;1.236;2023-10-19T11:46:10;22.80;99.90
34768;DHT22;21755;43.608;1.236;2023-10-19T11:48:38;22.90;99.90
34768;DHT22;21755;43.608;1.236;2023-10-19T11:51:06;22.90;99.90
34768;DHT22;21755;43.608;1.236;2023-10-19T11:53:36;22.90;99.90
34768;DHT22;21755;43.608;1.236;2023-10-19T11:56:04;22.90;99.90
34768;DHT22;21755;43.608;1.236;2023-10-19T11:58:35;22.90;99.90
34768;DHT22;21755;43.608;1.236;2023-10-19T12:01:04;22.90;99.90
34768;DHT22;21755;43.608;1.236;2023-10-19T12:03:35;22.90;99.90
34768;DHT22;21755;43.608;1.236;2023-10-19T12:06:08;22.90;99.90
34768;DHT22;21755;43.608;1.236;2023-10-19T12:08:36;22.90;99.90
34768;DHT22;21755;43.608;1.236;2023-10-19T12:11:03;22.90;99.90
34768;DHT22;21755;43.608;1.236;2023-10-19T12:13:30;22.80;99.90
34768;DHT22;21755;43.608;1.236;2023-10-19T12:15:57;22.70;99.90
34768;DHT22;21755;43.608;1.236;2023-10-19T12:18:27;22.60;99.90
34768;DHT22;21755;43.608;1.236;2023-10-19T12:20:54;22.60;99.90
34768;DHT22;21755;43.608;1.236;2023-10-19T12:23:25;22.60;99.90
34768;DHT22;21755;43.608;1.236;2023-10-19T12:25:51;22.60;99.90
34768;DHT22;21755;43.608;1.236;2023-10-19T12:28:18;22.50;99.90
34768;DHT22;21755;43.608;1.236;2023-10-19T12:30:44;22.50;99.90
34768;DHT22;21755;43.608;1.236;2023-10-19T12:33:10;22.60;99.90
34768;DHT22;21755;43.608;1.236;2023-10-19T12:35:41;22.60;99.90
34768;DHT22;21755;43.608;1.236;2023-10-19T12:38:25;22.70;99.90
34768;DHT22;21755;43.608;1.236;2023-10-19T12:40:51;22.70;99.90
34768;DHT22;21755;43.608;1.236;2023-10-19T12:43:18;22.70;99.90
34768;DHT22;21755;43.608;1.236;2023-10-19T12:45:44;22.80;99.90
34768;DHT22;21755;43.608;1.236;2023-10-19T12:48:16;22.80;99.90
34768;DHT22;21755;43.608;1.236;2023-10-19T12:50:43;22.90;99.90
34768;DHT22;21755;43.608;1.236;2023-10-19T12:53:09;22.90;99.90
34768;DHT22;21755;43.608;1.236;2023-10-19T12:55:35;23.00;99.90
34768;DHT22;21755;43.608;1.236;2023-10-19T12:58:04;23.00;99.90
34768;DHT22;21755;43.608;1.236;2023-10-19T13:00:35;23.10;99.90
34768;DHT22;21755;43.608;1.236;2023-10-19T13:03:10;23.00;99.90
34768;DHT22;21755;43.608;1.236;2023-10-19T13:05:40;22.90;99.90
34768;DHT22;21755;43.608;1.236;2023-10-19T13:08:08;22.80;99.90
34768;DHT22;21755;43.608;1.236;2023-10-19T13:10:34;22.60;99.90
34768;DHT22;21755;43.608;1.236;2023-10-19T13:13:04;22.50;99.90
34768;DHT22;21755;43.608;1.236;2023-10-19T13:15:34;22.40;99.90
34768;DHT22;21755;43.608;1.236;2023-10-19T13:18:05;22.40;99.90
34768;DHT22;21755;43.608;1.236;2023-10-19T13:20:33;22.30;99.90
34768;DHT22;21755;43.608;1.236;2023-10-19T13:23:09;22.30;99.90
34768;DHT22;21755;43.608;1.236;2023-10-19T13:25:42;22.30;99.90
34768;DHT22;21755;43.608;1.236;2023-10-19T13:28:13;22.30;99.90
34768;DHT22;21755;43.608;1.236;2023-10-19T13:30:40;22.30;99.90
34768;DHT22;21755;43.608;1.236;2023-10-19T13:33:08;22.30;99.90
34768;DHT22;21755;43.608;1.236;2023-10-19T13:35:38;22.20;99.90
34768;DHT22;21755;43.608;1.236;2023-10-19T13:38:05;22.20;99.90
34768;DHT22;21755;43.608;1.236;2023-10-19T13:40:32;22.10;99.90
34768;DHT22;21755;43.608;1.236;2023-10-19T13:42:58;22.00;99.90
34768;DHT22;21755;43.608;1.236;2023-10-19T13:45:25;22.00;99.90
34768;DHT22;21755;43.608;1.236;2023-10-19T13:47:51;21.90;99.90
34768;DHT22;21755;43.608;1.236;2023-10-19T13:50:24;21.80;99.90
34768;DHT22;21755;43.608;1.236;2023-10-19T13:52:55;21.70;99.90
34768;DHT22;21755;43.608;1.236;2023-10-19T13:55:25;21.60;99.90
34768;DHT22;21755;43.608;1.236;2023-10-19T13:57:51;21.60;99.90
34768;DHT22;21755;43.608;1.236;2023-10-19T14:00:20;21.50;99.90
34768;DHT22;21755;43.608;1.236;2023-10-19T14:02:56;21.50;99.90
34768;DHT22;21755;43.608;1.236;2023-10-19T14:05:24;21.50;99.90
34768;DHT22;21755;43.608;1.236;2023-10-19T14:07:51;21.50;99.90
34768;DHT22;21755;43.608;1.236;2023-10-19T14:10:19;21.60;99.90
34768;DHT22;21755;43.608;1.236;2023-10-19T14:12:47;21.50;99.90
34768;DHT22;21755;43.608;1.236;2023-10-19T14:15:19;21.50;99.90
34768;DHT22;21755;43.608;1.236;2023-10-19T14:17:47;21.40;99.90
34768;DHT22;21755;43.608;1.236;2023-10-19T14:20:15;21.40;99.90
34768;DHT22;21755;43.608;1.236;2023-10-19T14:22:42;21.40;99.90
34768;DHT22;21755;43.608;1.236;2023-10-19T14:25:09;21.40;99.90
34768;DHT22;21755;43.608;1.236;2023-10-19T14:27:44;21.40;99.90
34768;DHT22;21755;43.608;1.236;2023-10-19T14:30:10;21.40;99.90
34768;DHT22;21755;43.608;1.236;2023-10-19T14:32:44;21.40;99.90
34768;DHT22;21755;43.608;1.236;2023-10-19T14:35:15;21.40;99.90
34768;DHT22;21755;43.608;1.236;2023-10-19T14:37:42;21.40;99.90
34768;DHT22;21755;43.608;1.236;2023-10-19T14:40:12;21.40;99.90
34768;DHT22;21755;43.608;1.236;2023-10-19T14:42:41;21.30;99.90
34768;DHT22;21755;43.608;1.236;2023-10-19T14:45:11;21.30;99.90
34768;DHT22;21755;43.608;1.236;2023-10-19T14:47:40;21.30;99.90
34768;DHT22;21755;43.608;1.236;2023-10-19T14:50:13;21.20;99.90
34768;DHT22;21755;43.608;1.236;2023-10-19T14:52:46;21.20;99.90
34768;DHT22;21755;43.608;1.236;2023-10-19T14:55:13;21.10;99.90
34768;DHT22;21755;43.608;1.236;2023-10-19T14:57:43;21.10;99.90
34768;DHT22;21755;43.608;1.236;2023-10-19T15:00:11;21.00;99.90
34768;DHT22;21755;43.608;1.236;2023-10-19T15:02:52;21.00;99.90
34768;DHT22;21755;43.608;1.236;2023-10-19T15:05:20;20.90;99.90
34768;DHT22;21755;43.608;1.236;2023-10-19T15:07:49;20.80;99.90
34768;DHT22;21755;43.608;1.236;2023-10-19T15:10:23;20.80;99.90
34768;DHT22;21755;43.608;1.236;2023-10-19T15:12:51;20.70;99.90
34768;DHT22;21755;43.608;1.236;2023-10-19T15:15:17;20.70;99.90
34768;DHT22;21755;43.608;1.236;2023-10-19T15:17:44;20.70;99.90
34768;DHT22;21755;43.608;1.236;2023-10-19T15:20:12;20.60;99.90
34768;DHT22;21755;43.608;1.236;2023-10-19T15:22:41;20.60;99.90
34768;DHT22;21755;43.608;1.236;2023-10-19T15:25:07;20.60;99.90
34768;DHT22;21755;43.608;1.236;2023-10-19T15:27:36;20.60;99.90
34768;DHT22;21755;43.608;1.236;2023-10-19T15:30:04;20.60;99.90
34768;DHT22;21755;43.608;1.236;2023-10-19T15:32:34;20.60;99.90
34768;DHT22;21755;43.608;1.236;2023-10-19T15:35:00;20.50;99.90
34768;DHT22;21755;43.608;1.236;2023-10-19T15:37:27;20.50;99.90
34768;DHT22;21755;43.608;1.236;2023-10-19T15:39:53;20.50;99.90
34768;DHT22;21755;43.608;1.236;2023-10-19T15:42:19;20.50;99.90
34768;DHT22;21755;43.608;1.236;2023-10-19T15:44:48;20.50;99.90
34768;DHT22;21755;43.608;1.236;2023-10-19T15:47:15;20.40;99.90
34768;DHT22;21755;43.608;1.236;2023-10-19T15:49:48;20.40;99.90
34768;DHT22;21755;43.608;1.236;2023-10-19T15:52:17;20.40;99.90
34768;DHT22;21755;43.608;1.236;2023-10-19T15:54:45;20.40;99.90
34768;DHT22;21755;43.608;1.236;2023-10-19T15:57:11;20.40;99.90
34768;DHT22;21755;43.608;1.236;2023-10-19T15:59:37;20.40;99.90